sensor_id;sensor_type;location;lat;lon;timestamp;P1;durP1;ratioP1;P2;durP2;ratioP2
14688;SDS011;7432;48.728;9.154;2022-10-14T00:02:17;8.77;;;7.97;;
14688;SDS011;7432;48.728;9.154;2022-10-14T00:04:43;9.27;;;7.73;;
14688;SDS011;7432;48.728;9.154;2022-10-14T00:07:10;8.43;;;7.37;;
14688;SDS011;7432;48.728;9.154;2022-10-14T00:09:38;9.40;;;8.50;;
14688;SDS011;7432;48.728;9.154;2022-10-14T00:12:06;9.10;;;8.10;;
14688;SDS011;7432;48.728;9.154;2022-10-14T00:14:32;9.03;;;8.07;;
14688;SDS011;7432;48.728;9.154;2022-10-14T00:16:59;8.67;;;7.53;;
14688;SDS011;7432;48.728;9.154;2022-10-14T00:19:25;8.63;;;7.70;;
14688;SDS011;7432;48.728;9.154;2022-10-14T00:21:52;8.47;;;7.67;;
14688;SDS011;7432;48.728;9.154;2022-10-14T00:24:18;8.83;;;7.93;;
14688;SDS011;7432;48.728;9.154;2022-10-14T00:26:46;8.73;;;7.87;;
14688;SDS011;7432;48.728;9.154;2022-10-14T00:29:14;9.07;;;7.27;;
14688;SDS011;7432;48.728;9.154;2022-10-14T00:31:44;8.17;;;7.47;;
14688;SDS011;7432;48.728;9.154;2022-10-14T00:34:11;9.03;;;7.53;;
14688;SDS011;7432;48.728;9.154;2022-10-14T00:36:39;8.80;;;7.40;;
14688;SDS011;7432;48.728;9.154;2022-10-14T00:39:06;8.40;;;7.60;;
14688;SDS011;7432;48.728;9.154;2022-10-14T00:41:33;8.97;;;7.47;;
14688;SDS011;7432;48.728;9.154;2022-10-14T00:44:03;7.97;;;7.20;;
14688;SDS011;7432;48.728;9.154;2022-10-14T00:46:32;9.07;;;7.27;;
14688;SDS011;7432;48.728;9.154;2022-10-14T00:49:00;8.30;;;7.07;;
14688;SDS011;7432;48.728;9.154;2022-10-14T00:51:30;8.17;;;7.23;;
14688;SDS011;7432;48.728;9.154;2022-10-14T00:53:58;9.50;;;7.47;;
14688;SDS011;7432;48.728;9.154;2022-10-14T00:56:25;9.93;;;6.97;;
14688;SDS011;7432;48.728;9.154;2022-10-14T00:58:54;8.37;;;7.53;;
14688;SDS011;7432;48.728;9.154;2022-10-14T01:01:23;7.67;;;6.87;;
14688;SDS011;7432;48.728;9.154;2022-10-14T01:03:50;8.77;;;7.17;;
14688;SDS011;7432;48.728;9.154;2022-10-14T01:06:19;8.80;;;7.07;;
14688;SDS011;7432;48.728;9.154;2022-10-14T01:08:53;7.93;;;7.17;;
14688;SDS011;7432;48.728;9.154;2022-10-14T01:11:28;7.87;;;6.93;;
14688;SDS011;7432;48.728;9.154;2022-10-14T01:14:03;10.17;;;8.20;;
14688;SDS011;7432;48.728;9.154;2022-10-14T01:16:41;8.63;;;7.67;;
14688;SDS011;7432;48.728;9.154;2022-10-14T01:19:25;8.50;;;7.80;;
14688;SDS011;7432;48.728;9.154;2022-10-14T01:22:15;8.80;;;7.07;;
14688;SDS011;7432;48.728;9.154;2022-10-14T01:24:52;11.37;;;7.93;;
14688;SDS011;7432;48.728;9.154;2022-10-14T01:30:19;8.10;;;7.30;;
14688;SDS011;7432;48.728;9.154;2022-10-14T01:32:48;10.20;;;7.80;;
14688;SDS011;7432;48.728;9.154;2022-10-14T01:35:22;9.00;;;7.53;;
14688;SDS011;7432;48.728;9.154;2022-10-14T01:37:56;10.07;;;7.90;;
14688;SDS011;7432;48.728;9.154;2022-10-14T01:40:27;8.93;;;7.60;;
14688;SDS011;7432;48.728;9.154;2022-10-14T01:42:58;9.23;;;8.07;;
14688;SDS011;7432;48.728;9.154;2022-10-14T01:45:28;12.07;;;7.97;;
14688;SDS011;7432;48.728;9.154;2022-10-14T01:47:58;9.53;;;8.37;;
14688;SDS011;7432;48.728;9.154;2022-10-14T01:50:26;11.60;;;9.07;;
14688;SDS011;7432;48.728;9.154;2022-10-14T01:52:56;9.67;;;8.13;;
14688;SDS011;7432;48.728;9.154;2022-10-14T01:55:27;9.50;;;8.60;;
14688;SDS011;7432;48.728;9.154;2022-10-14T01:57:57;9.37;;;8.53;;
14688;SDS011;7432;48.728;9.154;2022-10-14T02:00:25;9.47;;;7.87;;
14688;SDS011;7432;48.728;9.154;2022-10-14T02:02:53;10.50;;;8.10;;
14688;SDS011;7432;48.728;9.154;2022-10-14T02:05:21;9.13;;;8.20;;
14688;SDS011;7432;48.728;9.154;2022-10-14T02:07:53;11.60;;;9.13;;
14688;SDS011;7432;48.728;9.154;2022-10-14T02:10:26;8.60;;;7.80;;
14688;SDS011;7432;48.728;9.154;2022-10-14T02:13:07;13.80;;;8.70;;
14688;SDS011;7432;48.728;9.154;2022-10-14T02:15:45;9.50;;;8.50;;
14688;SDS011;7432;48.728;9.154;2022-10-14T02:18:22;12.17;;;8.97;;
14688;SDS011;7432;48.728;9.154;2022-10-14T02:20:58;12.60;;;8.73;;
14688;SDS011;7432;48.728;9.154;2022-10-14T02:23:33;11.83;;;9.30;;
14688;SDS011;7432;48.728;9.154;2022-10-14T02:26:04;12.10;;;9.80;;
14688;SDS011;7432;48.728;9.154;2022-10-14T02:28:31;13.00;;;9.00;;
14688;SDS011;7432;48.728;9.154;2022-10-14T02:31:01;11.47;;;8.97;;
14688;SDS011;7432;48.728;9.154;2022-10-14T02:33:34;9.30;;;8.37;;
14688;SDS011;7432;48.728;9.154;2022-10-14T02:36:06;10.03;;;9.03;;
14688;SDS011;7432;48.728;9.154;2022-10-14T02:38:34;9.70;;;8.80;;
14688;SDS011;7432;48.728;9.154;2022-10-14T02:41:03;10.40;;;9.13;;
14688;SDS011;7432;48.728;9.154;2022-10-14T02:43:31;8.57;;;7.77;;
14688;SDS011;7432;48.728;9.154;2022-10-14T02:45:59;9.97;;;8.80;;
14688;SDS011;7432;48.728;9.154;2022-10-14T02:48:28;9.97;;;9.07;;
14688;SDS011;7432;48.728;9.154;2022-10-14T02:50:55;11.13;;;9.37;;
14688;SDS011;7432;48.728;9.154;2022-10-14T02:53:22;9.50;;;8.50;;
14688;SDS011;7432;48.728;9.154;2022-10-14T02:55:48;10.47;;;9.37;;
14688;SDS011;7432;48.728;9.154;2022-10-14T02:58:15;11.10;;;10.10;;
14688;SDS011;7432;48.728;9.154;2022-10-14T03:00:41;11.37;;;8.77;;
14688;SDS011;7432;48.728;9.154;2022-10-14T03:03:08;10.60;;;9.60;;
14688;SDS011;7432;48.728;9.154;2022-10-14T03:05:34;13.90;;;9.60;;
14688;SDS011;7432;48.728;9.154;2022-10-14T03:08:02;10.00;;;8.70;;
14688;SDS011;7432;48.728;9.154;2022-10-14T03:10:28;10.57;;;9.57;;
14688;SDS011;7432;48.728;9.154;2022-10-14T03:12:55;13.10;;;9.47;;
14688;SDS011;7432;48.728;9.154;2022-10-14T03:15:21;11.30;;;10.20;;
14688;SDS011;7432;48.728;9.154;2022-10-14T03:17:48;11.50;;;9.67;;
14688;SDS011;7432;48.728;9.154;2022-10-14T03:20:14;11.07;;;9.57;;
14688;SDS011;7432;48.728;9.154;2022-10-14T03:22:40;11.17;;;9.23;;
14688;SDS011;7432;48.728;9.154;2022-10-14T03:25:08;13.63;;;9.30;;
14688;SDS011;7432;48.728;9.154;2022-10-14T03:27:35;12.33;;;9.70;;
14688;SDS011;7432;48.728;9.154;2022-10-14T03:30:01;11.20;;;10.10;;
14688;SDS011;7432;48.728;9.154;2022-10-14T03:32:28;11.20;;;10.13;;
14688;SDS011;7432;48.728;9.154;2022-10-14T03:34:54;10.63;;;8.73;;
14688;SDS011;7432;48.728;9.154;2022-10-14T03:37:21;12.60;;;9.63;;
14688;SDS011;7432;48.728;9.154;2022-10-14T03:39:48;10.63;;;9.57;;
14688;SDS011;7432;48.728;9.154;2022-10-14T03:42:15;11.07;;;9.87;;
14688;SDS011;7432;48.728;9.154;2022-10-14T03:44:42;12.07;;;10.20;;
14688;SDS011;7432;48.728;9.154;2022-10-14T03:47:08;11.77;;;10.00;;
14688;SDS011;7432;48.728;9.154;2022-10-14T03:49:35;11.03;;;9.93;;
14688;SDS011;7432;48.728;9.154;2022-10-14T03:52:01;12.73;;;9.87;;
14688;SDS011;7432;48.728;9.154;2022-10-14T03:54:28;10.93;;;9.93;;
14688;SDS011;7432;48.728;9.154;2022-10-14T03:56:55;11.57;;;9.87;;
14688;SDS011;7432;48.728;9.154;2022-10-14T03:59:22;10.57;;;9.43;;
14688;SDS011;7432;48.728;9.154;2022-10-14T04:01:49;11.83;;;9.20;;
14688;SDS011;7432;48.728;9.154;2022-10-14T04:04:15;14.33;;;10.13;;
14688;SDS011;7432;48.728;9.154;2022-10-14T04:06:42;12.47;;;10.27;;
14688;SDS011;7432;48.728;9.154;2022-10-14T04:09:08;12.13;;;10.43;;
14688;SDS011;7432;48.728;9.154;2022-10-14T04:11:34;11.47;;;10.37;;
14688;SDS011;7432;48.728;9.154;2022-10-14T04:14:01;17.20;;;10.17;;
14688;SDS011;7432;48.728;9.154;2022-10-14T04:16:29;12.40;;;11.10;;
14688;SDS011;7432;48.728;9.154;2022-10-14T04:18:56;12.93;;;10.50;;
14688;SDS011;7432;48.728;9.154;2022-10-14T04:21:23;13.23;;;10.70;;
14688;SDS011;7432;48.728;9.154;2022-10-14T04:23:49;12.03;;;10.73;;
14688;SDS011;7432;48.728;9.154;2022-10-14T04:26:16;12.90;;;11.40;;
14688;SDS011;7432;48.728;9.154;2022-10-14T04:28:42;13.00;;;11.43;;
14688;SDS011;7432;48.728;9.154;2022-10-14T04:31:08;16.27;;;10.57;;
14688;SDS011;7432;48.728;9.154;2022-10-14T04:33:36;12.80;;;11.43;;
14688;SDS011;7432;48.728;9.154;2022-10-14T04:36:04;12.47;;;11.00;;
14688;SDS011;7432;48.728;9.154;2022-10-14T04:38:31;14.13;;;11.73;;
14688;SDS011;7432;48.728;9.154;2022-10-14T04:40:58;14.83;;;11.97;;
14688;SDS011;7432;48.728;9.154;2022-10-14T04:43:25;13.07;;;11.27;;
14688;SDS011;7432;48.728;9.154;2022-10-14T04:45:51;13.67;;;11.20;;
14688;SDS011;7432;48.728;9.154;2022-10-14T04:48:18;14.53;;;11.93;;
14688;SDS011;7432;48.728;9.154;2022-10-14T04:50:48;12.90;;;11.47;;
14688;SDS011;7432;48.728;9.154;2022-10-14T04:53:15;14.00;;;11.57;;
14688;SDS011;7432;48.728;9.154;2022-10-14T04:55:42;12.70;;;11.40;;
14688;SDS011;7432;48.728;9.154;2022-10-14T04:58:09;13.83;;;11.43;;
14688;SDS011;7432;48.728;9.154;2022-10-14T05:00:35;14.17;;;11.77;;
14688;SDS011;7432;48.728;9.154;2022-10-14T05:03:02;14.77;;;11.57;;
14688;SDS011;7432;48.728;9.154;2022-10-14T05:05:28;13.13;;;11.83;;
14688;SDS011;7432;48.728;9.154;2022-10-14T05:07:56;13.30;;;11.20;;
14688;SDS011;7432;48.728;9.154;2022-10-14T05:10:22;13.87;;;12.33;;
14688;SDS011;7432;48.728;9.154;2022-10-14T05:12:49;14.10;;;12.33;;
14688;SDS011;7432;48.728;9.154;2022-10-14T05:15:16;15.20;;;13.53;;
14688;SDS011;7432;48.728;9.154;2022-10-14T05:17:42;17.00;;;13.03;;
14688;SDS011;7432;48.728;9.154;2022-10-14T05:20:09;18.67;;;13.37;;
14688;SDS011;7432;48.728;9.154;2022-10-14T05:22:36;15.60;;;13.27;;
14688;SDS011;7432;48.728;9.154;2022-10-14T05:25:04;15.03;;;13.47;;
14688;SDS011;7432;48.728;9.154;2022-10-14T05:27:31;17.07;;;13.70;;
14688;SDS011;7432;48.728;9.154;2022-10-14T05:29:57;14.20;;;12.70;;
14688;SDS011;7432;48.728;9.154;2022-10-14T05:32:24;15.57;;;12.53;;
14688;SDS011;7432;48.728;9.154;2022-10-14T05:34:50;16.33;;;12.67;;
14688;SDS011;7432;48.728;9.154;2022-10-14T05:37:16;13.73;;;12.33;;
14688;SDS011;7432;48.728;9.154;2022-10-14T05:39:43;13.97;;;12.20;;
14688;SDS011;7432;48.728;9.154;2022-10-14T05:42:11;13.87;;;12.37;;
14688;SDS011;7432;48.728;9.154;2022-10-14T05:44:37;15.23;;;11.90;;
14688;SDS011;7432;48.728;9.154;2022-10-14T05:47:03;16.10;;;11.40;;
14688;SDS011;7432;48.728;9.154;2022-10-14T05:49:30;14.00;;;12.10;;
14688;SDS011;7432;48.728;9.154;2022-10-14T05:51:56;13.40;;;10.73;;
14688;SDS011;7432;48.728;9.154;2022-10-14T05:54:23;12.67;;;10.73;;
14688;SDS011;7432;48.728;9.154;2022-10-14T05:56:49;13.43;;;11.77;;
14688;SDS011;7432;48.728;9.154;2022-10-14T05:59:17;14.07;;;12.00;;
14688;SDS011;7432;48.728;9.154;2022-10-14T06:01:43;13.57;;;11.37;;
14688;SDS011;7432;48.728;9.154;2022-10-14T06:04:13;17.47;;;11.47;;
14688;SDS011;7432;48.728;9.154;2022-10-14T06:06:42;13.60;;;10.97;;
14688;SDS011;7432;48.728;9.154;2022-10-14T06:09:08;11.83;;;10.43;;
14688;SDS011;7432;48.728;9.154;2022-10-14T06:11:35;11.70;;;10.43;;
14688;SDS011;7432;48.728;9.154;2022-10-14T06:14:01;11.70;;;10.57;;
14688;SDS011;7432;48.728;9.154;2022-10-14T06:16:29;12.20;;;10.90;;
14688;SDS011;7432;48.728;9.154;2022-10-14T06:18:56;13.37;;;11.37;;
14688;SDS011;7432;48.728;9.154;2022-10-14T06:21:22;12.97;;;10.80;;
14688;SDS011;7432;48.728;9.154;2022-10-14T06:23:48;15.97;;;11.20;;
14688;SDS011;7432;48.728;9.154;2022-10-14T06:26:15;16.23;;;11.60;;
14688;SDS011;7432;48.728;9.154;2022-10-14T06:28:41;11.83;;;10.40;;
14688;SDS011;7432;48.728;9.154;2022-10-14T06:31:08;11.63;;;10.47;;
14688;SDS011;7432;48.728;9.154;2022-10-14T06:33:35;12.20;;;11.00;;
14688;SDS011;7432;48.728;9.154;2022-10-14T06:36:02;14.43;;;11.07;;
14688;SDS011;7432;48.728;9.154;2022-10-14T06:38:31;17.30;;;11.70;;
14688;SDS011;7432;48.728;9.154;2022-10-14T06:40:57;13.23;;;10.37;;
14688;SDS011;7432;48.728;9.154;2022-10-14T06:43:24;11.93;;;10.83;;
14688;SDS011;7432;48.728;9.154;2022-10-14T06:45:50;13.37;;;10.83;;
14688;SDS011;7432;48.728;9.154;2022-10-14T06:48:17;12.20;;;10.90;;
14688;SDS011;7432;48.728;9.154;2022-10-14T06:50:44;12.20;;;11.00;;
14688;SDS011;7432;48.728;9.154;2022-10-14T06:53:11;11.80;;;10.67;;
14688;SDS011;7432;48.728;9.154;2022-10-14T06:55:37;13.07;;;11.50;;
14688;SDS011;7432;48.728;9.154;2022-10-14T06:58:04;14.97;;;10.93;;
14688;SDS011;7432;48.728;9.154;2022-10-14T07:00:30;11.83;;;10.60;;
14688;SDS011;7432;48.728;9.154;2022-10-14T07:02:57;13.73;;;10.17;;
14688;SDS011;7432;48.728;9.154;2022-10-14T07:05:24;11.77;;;10.57;;
14688;SDS011;7432;48.728;9.154;2022-10-14T07:07:52;13.43;;;11.03;;
14688;SDS011;7432;48.728;9.154;2022-10-14T07:10:18;11.40;;;10.30;;
14688;SDS011;7432;48.728;9.154;2022-10-14T07:12:45;13.00;;;10.37;;
14688;SDS011;7432;48.728;9.154;2022-10-14T07:15:11;12.50;;;10.43;;
14688;SDS011;7432;48.728;9.154;2022-10-14T07:17:37;13.57;;;10.57;;
14688;SDS011;7432;48.728;9.154;2022-10-14T07:20:04;13.77;;;11.03;;
14688;SDS011;7432;48.728;9.154;2022-10-14T07:22:31;12.73;;;10.87;;
14688;SDS011;7432;48.728;9.154;2022-10-14T07:25:01;11.97;;;10.77;;
14688;SDS011;7432;48.728;9.154;2022-10-14T07:27:28;11.60;;;10.40;;
14688;SDS011;7432;48.728;9.154;2022-10-14T07:29:55;11.97;;;10.17;;
14688;SDS011;7432;48.728;9.154;2022-10-14T07:32:21;11.43;;;10.10;;
14688;SDS011;7432;48.728;9.154;2022-10-14T07:34:48;10.47;;;9.37;;
14688;SDS011;7432;48.728;9.154;2022-10-14T07:37:14;9.53;;;8.60;;
14688;SDS011;7432;48.728;9.154;2022-10-14T07:39:40;10.07;;;9.17;;
14688;SDS011;7432;48.728;9.154;2022-10-14T07:42:08;12.33;;;8.77;;
14688;SDS011;7432;48.728;9.154;2022-10-14T07:44:34;12.43;;;8.90;;
14688;SDS011;7432;48.728;9.154;2022-10-14T07:47:03;10.00;;;9.10;;
14688;SDS011;7432;48.728;9.154;2022-10-14T07:49:30;9.80;;;8.80;;
14688;SDS011;7432;48.728;9.154;2022-10-14T07:51:57;9.90;;;8.90;;
14688;SDS011;7432;48.728;9.154;2022-10-14T07:54:24;11.43;;;8.33;;
14688;SDS011;7432;48.728;9.154;2022-10-14T07:56:53;9.50;;;8.17;;
14688;SDS011;7432;48.728;9.154;2022-10-14T07:59:23;9.33;;;8.20;;
14688;SDS011;7432;48.728;9.154;2022-10-14T08:01:51;11.47;;;7.43;;
14688;SDS011;7432;48.728;9.154;2022-10-14T08:04:18;8.27;;;7.27;;
14688;SDS011;7432;48.728;9.154;2022-10-14T08:06:45;12.43;;;8.30;;
14688;SDS011;7432;48.728;9.154;2022-10-14T08:09:12;11.67;;;8.10;;
14688;SDS011;7432;48.728;9.154;2022-10-14T08:11:38;7.80;;;7.00;;
14688;SDS011;7432;48.728;9.154;2022-10-14T08:14:05;10.40;;;6.90;;
14688;SDS011;7432;48.728;9.154;2022-10-14T08:16:34;8.55;;;7.75;;
14688;SDS011;7432;48.728;9.154;2022-10-14T08:19:02;9.07;;;7.70;;
14688;SDS011;7432;48.728;9.154;2022-10-14T08:21:30;8.00;;;7.20;;
14688;SDS011;7432;48.728;9.154;2022-10-14T08:23:57;8.40;;;7.60;;
14688;SDS011;7432;48.728;9.154;2022-10-14T08:26:26;9.27;;;7.27;;
14688;SDS011;7432;48.728;9.154;2022-10-14T08:28:54;8.77;;;7.87;;
14688;SDS011;7432;48.728;9.154;2022-10-14T08:31:21;8.07;;;7.23;;
14688;SDS011;7432;48.728;9.154;2022-10-14T08:33:49;8.10;;;7.30;;
14688;SDS011;7432;48.728;9.154;2022-10-14T08:36:16;10.40;;;7.80;;
14688;SDS011;7432;48.728;9.154;2022-10-14T08:38:43;9.80;;;7.57;;
14688;SDS011;7432;48.728;9.154;2022-10-14T08:41:15;9.73;;;6.97;;
14688;SDS011;7432;48.728;9.154;2022-10-14T08:44:09;9.17;;;6.77;;
14688;SDS011;7432;48.728;9.154;2022-10-14T08:46:42;6.90;;;6.20;;
14688;SDS011;7432;48.728;9.154;2022-10-14T08:49:14;7.27;;;6.57;;
14688;SDS011;7432;48.728;9.154;2022-10-14T08:51:48;7.70;;;7.00;;
14688;SDS011;7432;48.728;9.154;2022-10-14T08:54:21;7.90;;;7.20;;
14688;SDS011;7432;48.728;9.154;2022-10-14T08:56:54;8.57;;;6.50;;
14688;SDS011;7432;48.728;9.154;2022-10-14T08:59:22;7.50;;;6.23;;
14688;SDS011;7432;48.728;9.154;2022-10-14T09:01:50;7.80;;;6.13;;
14688;SDS011;7432;48.728;9.154;2022-10-14T09:04:20;8.20;;;7.50;;
14688;SDS011;7432;48.728;9.154;2022-10-14T09:06:46;7.97;;;7.07;;
14688;SDS011;7432;48.728;9.154;2022-10-14T09:09:17;7.27;;;6.57;;
14688;SDS011;7432;48.728;9.154;2022-10-14T09:11:50;6.57;;;5.97;;
14688;SDS011;7432;48.728;9.154;2022-10-14T09:14:21;7.23;;;6.63;;
14688;SDS011;7432;48.728;9.154;2022-10-14T09:16:51;6.90;;;6.30;;
14688;SDS011;7432;48.728;9.154;2022-10-14T09:19:25;7.40;;;6.80;;
14688;SDS011;7432;48.728;9.154;2022-10-14T09:21:56;7.23;;;6.50;;
14688;SDS011;7432;48.728;9.154;2022-10-14T09:24:25;7.77;;;7.17;;
14688;SDS011;7432;48.728;9.154;2022-10-14T09:26:53;7.80;;;7.20;;
14688;SDS011;7432;48.728;9.154;2022-10-14T09:29:23;7.90;;;7.10;;
14688;SDS011;7432;48.728;9.154;2022-10-14T09:31:53;8.53;;;7.00;;
14688;SDS011;7432;48.728;9.154;2022-10-14T09:34:24;6.93;;;6.43;;
14688;SDS011;7432;48.728;9.154;2022-10-14T09:36:57;7.50;;;6.63;;
14688;SDS011;7432;48.728;9.154;2022-10-14T09:39:26;7.67;;;7.03;;
14688;SDS011;7432;48.728;9.154;2022-10-14T09:41:53;7.97;;;7.20;;
14688;SDS011;7432;48.728;9.154;2022-10-14T09:44:21;6.97;;;6.23;;
14688;SDS011;7432;48.728;9.154;2022-10-14T09:46:51;7.73;;;6.67;;
14688;SDS011;7432;48.728;9.154;2022-10-14T09:49:23;7.00;;;6.40;;
14688;SDS011;7432;48.728;9.154;2022-10-14T09:52:01;7.70;;;7.00;;
14688;SDS011;7432;48.728;9.154;2022-10-14T09:54:28;7.87;;;6.87;;
14688;SDS011;7432;48.728;9.154;2022-10-14T09:57:01;14.07;;;7.17;;
14688;SDS011;7432;48.728;9.154;2022-10-14T09:59:31;7.20;;;6.67;;
14688;SDS011;7432;48.728;9.154;2022-10-14T10:01:59;10.70;;;7.30;;
14688;SDS011;7432;48.728;9.154;2022-10-14T10:04:33;7.30;;;6.70;;
14688;SDS011;7432;48.728;9.154;2022-10-14T10:07:03;7.50;;;6.80;;
14688;SDS011;7432;48.728;9.154;2022-10-14T10:09:31;7.50;;;6.80;;
14688;SDS011;7432;48.728;9.154;2022-10-14T10:11:59;8.17;;;7.13;;
14688;SDS011;7432;48.728;9.154;2022-10-14T10:14:26;7.83;;;7.10;;
14688;SDS011;7432;48.728;9.154;2022-10-14T10:17:09;7.87;;;7.00;;
14688;SDS011;7432;48.728;9.154;2022-10-14T10:19:39;8.83;;;7.10;;
14688;SDS011;7432;48.728;9.154;2022-10-14T10:22:20;7.67;;;6.97;;
14688;SDS011;7432;48.728;9.154;2022-10-14T10:24:48;7.47;;;6.90;;
14688;SDS011;7432;48.728;9.154;2022-10-14T10:27:19;7.37;;;6.77;;
14688;SDS011;7432;48.728;9.154;2022-10-14T10:29:49;6.65;;;6.13;;
14688;SDS011;7432;48.728;9.154;2022-10-14T10:32:16;7.30;;;6.77;;
14688;SDS011;7432;48.728;9.154;2022-10-14T10:34:57;7.00;;;6.30;;
14688;SDS011;7432;48.728;9.154;2022-10-14T10:37:38;7.00;;;6.50;;
14688;SDS011;7432;48.728;9.154;2022-10-14T10:40:23;7.00;;;6.40;;
14688;SDS011;7432;48.728;9.154;2022-10-14T10:43:02;7.23;;;6.63;;
14688;SDS011;7432;48.728;9.154;2022-10-14T10:45:49;7.00;;;6.50;;
14688;SDS011;7432;48.728;9.154;2022-10-14T10:48:26;7.47;;;6.87;;
14688;SDS011;7432;48.728;9.154;2022-10-14T10:51:01;8.30;;;6.90;;
14688;SDS011;7432;48.728;9.154;2022-10-14T10:53:38;8.27;;;7.47;;
14688;SDS011;7432;48.728;9.154;2022-10-14T10:56:15;7.47;;;6.77;;
14688;SDS011;7432;48.728;9.154;2022-10-14T10:58:55;6.97;;;6.47;;
14688;SDS011;7432;48.728;9.154;2022-10-14T11:01:34;6.67;;;6.00;;
14688;SDS011;7432;48.728;9.154;2022-10-14T11:04:16;6.50;;;5.90;;
14688;SDS011;7432;48.728;9.154;2022-10-14T11:06:53;7.33;;;6.70;;
14688;SDS011;7432;48.728;9.154;2022-10-14T11:09:57;7.30;;;6.60;;
14688;SDS011;7432;48.728;9.154;2022-10-14T11:12:51;7.50;;;6.90;;
14688;SDS011;7432;48.728;9.154;2022-10-14T11:15:33;6.70;;;5.80;;
14688;SDS011;7432;48.728;9.154;2022-10-14T11:18:11;7.23;;;6.70;;
14688;SDS011;7432;48.728;9.154;2022-10-14T11:20:46;9.17;;;6.37;;
14688;SDS011;7432;48.728;9.154;2022-10-14T11:23:35;7.77;;;6.87;;
14688;SDS011;7432;48.728;9.154;2022-10-14T11:26:08;7.10;;;6.40;;
14688;SDS011;7432;48.728;9.154;2022-10-14T11:28:45;7.93;;;5.90;;
14688;SDS011;7432;48.728;9.154;2022-10-14T11:31:22;6.40;;;5.80;;
14688;SDS011;7432;48.728;9.154;2022-10-14T11:34:02;6.87;;;6.13;;
14688;SDS011;7432;48.728;9.154;2022-10-14T11:36:42;6.47;;;5.87;;
14688;SDS011;7432;48.728;9.154;2022-10-14T11:39:18;6.70;;;6.07;;
14688;SDS011;7432;48.728;9.154;2022-10-14T11:42:01;6.93;;;6.23;;
14688;SDS011;7432;48.728;9.154;2022-10-14T11:44:38;6.10;;;5.10;;
14688;SDS011;7432;48.728;9.154;2022-10-14T11:47:07;7.70;;;6.00;;
14688;SDS011;7432;48.728;9.154;2022-10-14T11:49:40;6.37;;;5.77;;
14688;SDS011;7432;48.728;9.154;2022-10-14T11:52:13;6.10;;;5.50;;
14688;SDS011;7432;48.728;9.154;2022-10-14T11:54:46;9.60;;;5.97;;
14688;SDS011;7432;48.728;9.154;2022-10-14T11:57:19;6.10;;;5.60;;
14688;SDS011;7432;48.728;9.154;2022-10-14T12:02:42;9.83;;;5.87;;
14688;SDS011;7432;48.728;9.154;2022-10-14T12:05:15;6.77;;;5.73;;
14688;SDS011;7432;48.728;9.154;2022-10-14T12:07:48;6.60;;;5.70;;
14688;SDS011;7432;48.728;9.154;2022-10-14T12:10:30;6.50;;;5.90;;
14688;SDS011;7432;48.728;9.154;2022-10-14T12:12:59;6.13;;;5.60;;
14688;SDS011;7432;48.728;9.154;2022-10-14T12:15:31;6.90;;;6.40;;
14688;SDS011;7432;48.728;9.154;2022-10-14T12:18:01;7.07;;;5.77;;
14688;SDS011;7432;48.728;9.154;2022-10-14T12:20:32;5.03;;;4.53;;
14688;SDS011;7432;48.728;9.154;2022-10-14T12:23:03;6.20;;;5.60;;
14688;SDS011;7432;48.728;9.154;2022-10-14T12:25:34;5.90;;;5.47;;
14688;SDS011;7432;48.728;9.154;2022-10-14T12:28:07;5.78;;;5.28;;
14688;SDS011;7432;48.728;9.154;2022-10-14T12:30:37;6.13;;;5.40;;
14688;SDS011;7432;48.728;9.154;2022-10-14T12:33:06;6.30;;;5.13;;
14688;SDS011;7432;48.728;9.154;2022-10-14T12:35:50;5.55;;;5.15;;
14688;SDS011;7432;48.728;9.154;2022-10-14T12:38:18;5.60;;;5.10;;
14688;SDS011;7432;48.728;9.154;2022-10-14T12:40:47;5.33;;;4.93;;
14688;SDS011;7432;48.728;9.154;2022-10-14T12:43:17;5.67;;;5.27;;
14688;SDS011;7432;48.728;9.154;2022-10-14T12:45:49;5.53;;;5.03;;
14688;SDS011;7432;48.728;9.154;2022-10-14T12:48:30;5.70;;;5.20;;
14688;SDS011;7432;48.728;9.154;2022-10-14T12:51:06;6.27;;;4.90;;
14688;SDS011;7432;48.728;9.154;2022-10-14T12:53:36;5.13;;;4.80;;
14688;SDS011;7432;48.728;9.154;2022-10-14T12:56:13;5.83;;;4.70;;
14688;SDS011;7432;48.728;9.154;2022-10-14T12:58:55;5.83;;;5.20;;
14688;SDS011;7432;48.728;9.154;2022-10-14T13:01:25;5.40;;;4.90;;
14688;SDS011;7432;48.728;9.154;2022-10-14T13:03:52;5.40;;;4.93;;
14688;SDS011;7432;48.728;9.154;2022-10-14T13:06:29;5.63;;;5.20;;
14688;SDS011;7432;48.728;9.154;2022-10-14T13:09:16;5.50;;;5.00;;
14688;SDS011;7432;48.728;9.154;2022-10-14T13:11:46;5.40;;;4.90;;
14688;SDS011;7432;48.728;9.154;2022-10-14T13:14:59;5.17;;;4.70;;
14688;SDS011;7432;48.728;9.154;2022-10-14T13:17:27;5.10;;;4.80;;
14688;SDS011;7432;48.728;9.154;2022-10-14T13:19:55;5.10;;;4.80;;
14688;SDS011;7432;48.728;9.154;2022-10-14T13:22:37;5.07;;;4.67;;
14688;SDS011;7432;48.728;9.154;2022-10-14T13:25:12;5.40;;;5.00;;
14688;SDS011;7432;48.728;9.154;2022-10-14T13:30:46;5.30;;;4.90;;
14688;SDS011;7432;48.728;9.154;2022-10-14T13:33:21;4.97;;;4.67;;
14688;SDS011;7432;48.728;9.154;2022-10-14T13:35:57;4.83;;;4.53;;
14688;SDS011;7432;48.728;9.154;2022-10-14T13:38:30;5.07;;;4.77;;
14688;SDS011;7432;48.728;9.154;2022-10-14T13:40:58;5.40;;;5.00;;
14688;SDS011;7432;48.728;9.154;2022-10-14T13:43:26;5.43;;;4.90;;
14688;SDS011;7432;48.728;9.154;2022-10-14T13:46:02;5.13;;;4.60;;
14688;SDS011;7432;48.728;9.154;2022-10-14T13:48:32;4.90;;;4.60;;
14688;SDS011;7432;48.728;9.154;2022-10-14T13:51:06;4.87;;;4.50;;
14688;SDS011;7432;48.728;9.154;2022-10-14T13:53:49;4.97;;;4.50;;
14688;SDS011;7432;48.728;9.154;2022-10-14T13:56:18;4.90;;;4.50;;
14688;SDS011;7432;48.728;9.154;2022-10-14T13:58:49;4.80;;;4.50;;
14688;SDS011;7432;48.728;9.154;2022-10-14T14:01:16;4.87;;;4.27;;
14688;SDS011;7432;48.728;9.154;2022-10-14T14:03:48;5.73;;;4.87;;
14688;SDS011;7432;48.728;9.154;2022-10-14T14:06:17;5.20;;;4.80;;
14688;SDS011;7432;48.728;9.154;2022-10-14T14:08:46;4.50;;;4.27;;
14688;SDS011;7432;48.728;9.154;2022-10-14T14:11:18;5.13;;;4.80;;
14688;SDS011;7432;48.728;9.154;2022-10-14T14:13:48;4.90;;;4.17;;
14688;SDS011;7432;48.728;9.154;2022-10-14T14:16:21;5.30;;;4.80;;
14688;SDS011;7432;48.728;9.154;2022-10-14T14:18:49;8.17;;;5.30;;
14688;SDS011;7432;48.728;9.154;2022-10-14T14:21:19;5.60;;;5.07;;
14688;SDS011;7432;48.728;9.154;2022-10-14T14:23:47;5.13;;;4.72;;
14688;SDS011;7432;48.728;9.154;2022-10-14T14:26:15;5.03;;;4.63;;
14688;SDS011;7432;48.728;9.154;2022-10-14T14:28:43;4.83;;;4.53;;
14688;SDS011;7432;48.728;9.154;2022-10-14T14:31:13;5.43;;;4.70;;
14688;SDS011;7432;48.728;9.154;2022-10-14T14:33:41;4.90;;;4.50;;
14688;SDS011;7432;48.728;9.154;2022-10-14T14:36:11;5.13;;;4.70;;
14688;SDS011;7432;48.728;9.154;2022-10-14T14:38:44;4.70;;;4.30;;
14688;SDS011;7432;48.728;9.154;2022-10-14T14:41:17;5.00;;;4.70;;
14688;SDS011;7432;48.728;9.154;2022-10-14T14:43:47;4.50;;;4.20;;
14688;SDS011;7432;48.728;9.154;2022-10-14T14:46:17;4.80;;;4.43;;
14688;SDS011;7432;48.728;9.154;2022-10-14T14:48:47;4.80;;;4.10;;
14688;SDS011;7432;48.728;9.154;2022-10-14T14:51:17;4.17;;;3.97;;
14688;SDS011;7432;48.728;9.154;2022-10-14T14:53:44;5.50;;;4.37;;
14688;SDS011;7432;48.728;9.154;2022-10-14T14:56:14;5.00;;;4.60;;
14688;SDS011;7432;48.728;9.154;2022-10-14T14:58:45;4.57;;;4.17;;
14688;SDS011;7432;48.728;9.154;2022-10-14T15:01:18;4.97;;;4.60;;
14688;SDS011;7432;48.728;9.154;2022-10-14T15:03:51;5.13;;;4.73;;
14688;SDS011;7432;48.728;9.154;2022-10-14T15:06:21;4.80;;;4.40;;
14688;SDS011;7432;48.728;9.154;2022-10-14T15:08:49;4.87;;;4.27;;
14688;SDS011;7432;48.728;9.154;2022-10-14T15:11:17;4.60;;;4.30;;
14688;SDS011;7432;48.728;9.154;2022-10-14T15:13:46;5.17;;;4.30;;
14688;SDS011;7432;48.728;9.154;2022-10-14T15:19:13;5.07;;;4.67;;
14688;SDS011;7432;48.728;9.154;2022-10-14T15:25:02;5.20;;;4.83;;
14688;SDS011;7432;48.728;9.154;2022-10-14T15:27:39;5.57;;;5.17;;